sensor_id;sensor_type;location;lat;lon;timestamp;P1;durP1;ratioP1;P2;durP2;ratioP2
7033;SDS011;3558;53.176;10.412;2024-02-26T03:46:58;1.87;;;1.20;;
7033;SDS011;3558;53.176;10.412;2024-02-26T03:49:23;1.73;;;1.20;;
7033;SDS011;3558;53.176;10.412;2024-02-26T03:51:49;1.67;;;1.20;;
7033;SDS011;3558;53.176;10.412;2024-02-26T03:54:15;2.58;;;1.13;;
7033;SDS011;3558;53.176;10.412;2024-02-26T03:56:40;1.43;;;1.17;;
7033;SDS011;3558;53.176;10.412;2024-02-26T03:59:06;1.80;;;1.13;;
7033;SDS011;3558;53.176;10.412;2024-02-26T04:01:31;1.40;;;1.10;;
7033;SDS011;3558;53.176;10.412;2024-02-26T04:03:57;1.63;;;1.17;;
7033;SDS011;3558;53.176;10.412;2024-02-26T04:06:22;1.38;;;1.17;;
7033;SDS011;3558;53.176;10.412;2024-02-26T04:08:48;2.00;;;1.20;;
7033;SDS011;3558;53.176;10.412;2024-02-26T04:11:13;1.40;;;1.10;;
7033;SDS011;3558;53.176;10.412;2024-02-26T04:13:42;1.60;;;1.13;;
7033;SDS011;3558;53.176;10.412;2024-02-26T04:16:14;1.67;;;1.33;;
7033;SDS011;3558;53.176;10.412;2024-02-26T04:18:40;1.10;;;1.00;;
7033;SDS011;3558;53.176;10.412;2024-02-26T04:21:05;2.67;;;1.13;;
7033;SDS011;3558;53.176;10.412;2024-02-26T04:23:32;1.50;;;1.10;;
7033;SDS011;3558;53.176;10.412;2024-02-26T04:25:58;1.40;;;1.10;;
7033;SDS011;3558;53.176;10.412;2024-02-26T04:28:23;1.30;;;1.17;;
7033;SDS011;3558;53.176;10.412;2024-02-26T04:30:54;2.23;;;1.20;;
7033;SDS011;3558;53.176;10.412;2024-02-26T04:33:19;1.70;;;1.30;;
7033;SDS011;3558;53.176;10.412;2024-02-26T04:35:45;2.15;;;1.10;;
7033;SDS011;3558;53.176;10.412;2024-02-26T04:38:10;1.50;;;1.20;;
7033;SDS011;3558;53.176;10.412;2024-02-26T04:40:36;1.50;;;1.20;;
7033;SDS011;3558;53.176;10.412;2024-02-26T04:43:01;1.90;;;1.20;;
7033;SDS011;3558;53.176;10.412;2024-02-26T04:45:27;1.17;;;1.00;;
7033;SDS011;3558;53.176;10.412;2024-02-26T04:47:53;1.85;;;1.35;;
7033;SDS011;3558;53.176;10.412;2024-02-26T04:50:19;1.73;;;1.30;;
7033;SDS011;3558;53.176;10.412;2024-02-26T04:52:44;1.42;;;1.20;;
7033;SDS011;3558;53.176;10.412;2024-02-26T04:55:10;1.93;;;1.30;;
7033;SDS011;3558;53.176;10.412;2024-02-26T04:57:36;1.30;;;1.10;;
7033;SDS011;3558;53.176;10.412;2024-02-26T05:00:01;1.90;;;1.20;;
7033;SDS011;3558;53.176;10.412;2024-02-26T05:02:28;1.55;;;1.30;;
7033;SDS011;3558;53.176;10.412;2024-02-26T05:04:55;1.67;;;1.30;;
7033;SDS011;3558;53.176;10.412;2024-02-26T05:07:20;1.75;;;1.30;;
7033;SDS011;3558;53.176;10.412;2024-02-26T05:09:46;1.80;;;1.30;;
7033;SDS011;3558;53.176;10.412;2024-02-26T05:12:14;1.65;;;1.50;;
7033;SDS011;3558;53.176;10.412;2024-02-26T05:14:40;2.00;;;1.30;;
7033;SDS011;3558;53.176;10.412;2024-02-26T05:17:05;1.70;;;1.50;;
7033;SDS011;3558;53.176;10.412;2024-02-26T05:19:31;1.92;;;1.45;;
7033;SDS011;3558;53.176;10.412;2024-02-26T05:21:56;1.58;;;1.45;;
7033;SDS011;3558;53.176;10.412;2024-02-26T05:24:22;1.90;;;1.50;;
7033;SDS011;3558;53.176;10.412;2024-02-26T05:26:47;1.80;;;1.50;;
7033;SDS011;3558;53.176;10.412;2024-02-26T05:29:13;2.10;;;1.50;;
7033;SDS011;3558;53.176;10.412;2024-02-26T05:31:39;1.67;;;1.30;;
7033;SDS011;3558;53.176;10.412;2024-02-26T05:34:06;1.80;;;1.50;;
7033;SDS011;3558;53.176;10.412;2024-02-26T05:36:32;2.40;;;1.50;;
7033;SDS011;3558;53.176;10.412;2024-02-26T05:38:59;2.05;;;1.58;;
7033;SDS011;3558;53.176;10.412;2024-02-26T05:41:25;2.30;;;1.60;;
7033;SDS011;3558;53.176;10.412;2024-02-26T05:43:51;1.98;;;1.58;;
7033;SDS011;3558;53.176;10.412;2024-02-26T05:46:18;2.17;;;1.75;;
7033;SDS011;3558;53.176;10.412;2024-02-26T05:48:47;1.73;;;1.50;;
7033;SDS011;3558;53.176;10.412;2024-02-26T05:51:13;1.80;;;1.42;;
7033;SDS011;3558;53.176;10.412;2024-02-26T05:53:40;2.20;;;1.60;;
7033;SDS011;3558;53.176;10.412;2024-02-26T05:56:05;1.90;;;1.70;;
7033;SDS011;3558;53.176;10.412;2024-02-26T05:58:31;1.90;;;1.57;;
7033;SDS011;3558;53.176;10.412;2024-02-26T06:00:57;2.40;;;1.83;;
7033;SDS011;3558;53.176;10.412;2024-02-26T06:03:22;2.33;;;1.70;;
7033;SDS011;3558;53.176;10.412;2024-02-26T06:05:47;2.17;;;1.73;;
7033;SDS011;3558;53.176;10.412;2024-02-26T06:08:13;1.90;;;1.47;;
7033;SDS011;3558;53.176;10.412;2024-02-26T06:10:39;1.80;;;1.50;;
7033;SDS011;3558;53.176;10.412;2024-02-26T06:13:04;1.60;;;1.40;;
7033;SDS011;3558;53.176;10.412;2024-02-26T06:15:30;2.67;;;1.70;;
7033;SDS011;3558;53.176;10.412;2024-02-26T06:17:55;2.47;;;1.40;;
7033;SDS011;3558;53.176;10.412;2024-02-26T06:20:21;1.90;;;1.70;;
7033;SDS011;3558;53.176;10.412;2024-02-26T06:22:47;2.20;;;1.63;;
7033;SDS011;3558;53.176;10.412;2024-02-26T06:25:12;2.13;;;1.55;;
7033;SDS011;3558;53.176;10.412;2024-02-26T06:27:37;2.00;;;1.60;;
7033;SDS011;3558;53.176;10.412;2024-02-26T06:30:03;2.60;;;1.83;;
7033;SDS011;3558;53.176;10.412;2024-02-26T06:32:29;1.90;;;1.60;;
7033;SDS011;3558;53.176;10.412;2024-02-26T06:34:55;1.90;;;1.45;;
7033;SDS011;3558;53.176;10.412;2024-02-26T06:37:21;2.20;;;1.70;;
7033;SDS011;3558;53.176;10.412;2024-02-26T06:39:47;1.87;;;1.60;;
7033;SDS011;3558;53.176;10.412;2024-02-26T06:42:12;1.63;;;1.50;;
7033;SDS011;3558;53.176;10.412;2024-02-26T06:44:38;2.20;;;1.63;;
7033;SDS011;3558;53.176;10.412;2024-02-26T06:47:03;2.50;;;1.70;;
7033;SDS011;3558;53.176;10.412;2024-02-26T06:49:29;2.00;;;1.48;;
7033;SDS011;3558;53.176;10.412;2024-02-26T06:51:55;2.80;;;1.60;;
7033;SDS011;3558;53.176;10.412;2024-02-26T06:54:20;2.03;;;1.67;;
7033;SDS011;3558;53.176;10.412;2024-02-26T06:56:46;1.73;;;1.40;;
7033;SDS011;3558;53.176;10.412;2024-02-26T06:59:11;1.80;;;1.52;;
7033;SDS011;3558;53.176;10.412;2024-02-26T07:01:39;1.97;;;1.43;;
7033;SDS011;3558;53.176;10.412;2024-02-26T07:04:06;2.20;;;1.50;;
7033;SDS011;3558;53.176;10.412;2024-02-26T07:06:32;2.10;;;1.70;;
7033;SDS011;3558;53.176;10.412;2024-02-26T07:08:57;2.10;;;1.60;;
7033;SDS011;3558;53.176;10.412;2024-02-26T07:11:23;1.83;;;1.60;;
7033;SDS011;3558;53.176;10.412;2024-02-26T07:13:48;2.00;;;1.48;;
7033;SDS011;3558;53.176;10.412;2024-02-26T07:16:14;1.55;;;1.30;;
7033;SDS011;3558;53.176;10.412;2024-02-26T07:18:40;1.60;;;1.40;;
7033;SDS011;3558;53.176;10.412;2024-02-26T07:21:05;1.67;;;1.33;;
7033;SDS011;3558;53.176;10.412;2024-02-26T07:23:31;2.37;;;1.60;;
7033;SDS011;3558;53.176;10.412;2024-02-26T07:25:57;2.10;;;1.60;;
7033;SDS011;3558;53.176;10.412;2024-02-26T07:28:22;2.30;;;1.50;;
7033;SDS011;3558;53.176;10.412;2024-02-26T07:30:48;1.90;;;1.50;;
7033;SDS011;3558;53.176;10.412;2024-02-26T07:33:14;1.67;;;1.30;;
7033;SDS011;3558;53.176;10.412;2024-02-26T07:35:39;1.97;;;1.60;;
7033;SDS011;3558;53.176;10.412;2024-02-26T07:38:05;2.10;;;1.67;;
7033;SDS011;3558;53.176;10.412;2024-02-26T07:40:31;2.40;;;1.50;;
7033;SDS011;3558;53.176;10.412;2024-02-26T07:42:56;2.20;;;1.30;;
7033;SDS011;3558;53.176;10.412;2024-02-26T07:45:22;2.23;;;1.60;;
7033;SDS011;3558;53.176;10.412;2024-02-26T07:47:48;1.80;;;1.50;;
7033;SDS011;3558;53.176;10.412;2024-02-26T07:50:13;2.03;;;1.67;;
7033;SDS011;3558;53.176;10.412;2024-02-26T07:52:39;1.67;;;1.40;;
7033;SDS011;3558;53.176;10.412;2024-02-26T07:55:05;2.70;;;1.50;;
7033;SDS011;3558;53.176;10.412;2024-02-26T07:57:32;2.83;;;1.60;;
7033;SDS011;3558;53.176;10.412;2024-02-26T07:59:58;1.70;;;1.40;;
7033;SDS011;3558;53.176;10.412;2024-02-26T08:02:24;1.83;;;1.38;;
7033;SDS011;3558;53.176;10.412;2024-02-26T08:04:50;1.52;;;1.40;;
7033;SDS011;3558;53.176;10.412;2024-02-26T08:07:16;1.92;;;1.60;;
7033;SDS011;3558;53.176;10.412;2024-02-26T08:09:41;1.63;;;1.40;;
7033;SDS011;3558;53.176;10.412;2024-02-26T08:12:07;3.80;;;1.60;;
7033;SDS011;3558;53.176;10.412;2024-02-26T08:14:32;1.80;;;1.52;;
7033;SDS011;3558;53.176;10.412;2024-02-26T08:16:58;2.03;;;1.48;;
7033;SDS011;3558;53.176;10.412;2024-02-26T08:19:24;1.90;;;1.50;;
7033;SDS011;3558;53.176;10.412;2024-02-26T08:21:50;2.10;;;1.60;;
7033;SDS011;3558;53.176;10.412;2024-02-26T08:24:15;1.83;;;1.40;;
7033;SDS011;3558;53.176;10.412;2024-02-26T08:26:41;2.50;;;1.60;;
7033;SDS011;3558;53.176;10.412;2024-02-26T08:29:07;2.00;;;1.50;;
7033;SDS011;3558;53.176;10.412;2024-02-26T08:31:32;2.30;;;1.47;;
7033;SDS011;3558;53.176;10.412;2024-02-26T08:33:58;1.90;;;1.50;;
7033;SDS011;3558;53.176;10.412;2024-02-26T08:36:25;2.30;;;1.75;;
7033;SDS011;3558;53.176;10.412;2024-02-26T08:38:51;1.80;;;1.50;;
7033;SDS011;3558;53.176;10.412;2024-02-26T08:41:16;2.60;;;1.77;;
7033;SDS011;3558;53.176;10.412;2024-02-26T08:43:41;2.57;;;1.80;;
7033;SDS011;3558;53.176;10.412;2024-02-26T08:46:12;2.00;;;1.50;;
7033;SDS011;3558;53.176;10.412;2024-02-26T08:48:38;2.00;;;1.58;;
7033;SDS011;3558;53.176;10.412;2024-02-26T08:51:07;1.80;;;1.52;;
7033;SDS011;3558;53.176;10.412;2024-02-26T08:53:34;2.08;;;1.83;;
7033;SDS011;3558;53.176;10.412;2024-02-26T08:56:00;1.80;;;1.45;;
7033;SDS011;3558;53.176;10.412;2024-02-26T08:58:27;2.05;;;1.60;;
7033;SDS011;3558;53.176;10.412;2024-02-26T09:00:52;1.97;;;1.43;;
7033;SDS011;3558;53.176;10.412;2024-02-26T09:03:18;2.20;;;1.90;;
7033;SDS011;3558;53.176;10.412;2024-02-26T09:05:43;2.33;;;1.70;;
7033;SDS011;3558;53.176;10.412;2024-02-26T09:08:09;2.20;;;1.90;;
7033;SDS011;3558;53.176;10.412;2024-02-26T09:10:35;2.17;;;1.83;;
7033;SDS011;3558;53.176;10.412;2024-02-26T09:13:00;2.40;;;1.90;;
7033;SDS011;3558;53.176;10.412;2024-02-26T09:15:26;2.30;;;1.88;;
7033;SDS011;3558;53.176;10.412;2024-02-26T09:17:51;2.15;;;1.73;;
7033;SDS011;3558;53.176;10.412;2024-02-26T09:20:17;2.67;;;2.10;;
7033;SDS011;3558;53.176;10.412;2024-02-26T09:22:45;2.17;;;1.80;;
7033;SDS011;3558;53.176;10.412;2024-02-26T09:25:12;2.70;;;1.92;;
7033;SDS011;3558;53.176;10.412;2024-02-26T09:27:38;2.53;;;1.87;;
7033;SDS011;3558;53.176;10.412;2024-02-26T09:30:03;2.93;;;2.03;;
7033;SDS011;3558;53.176;10.412;2024-02-26T09:32:30;2.70;;;1.90;;
7033;SDS011;3558;53.176;10.412;2024-02-26T09:34:55;3.17;;;2.22;;
7033;SDS011;3558;53.176;10.412;2024-02-26T09:37:21;2.87;;;2.10;;
7033;SDS011;3558;53.176;10.412;2024-02-26T09:39:46;2.60;;;2.07;;
7033;SDS011;3558;53.176;10.412;2024-02-26T09:42:12;2.78;;;2.13;;
7033;SDS011;3558;53.176;10.412;2024-02-26T09:44:39;3.15;;;2.22;;
7033;SDS011;3558;53.176;10.412;2024-02-26T09:47:07;2.35;;;2.00;;
7033;SDS011;3558;53.176;10.412;2024-02-26T09:49:35;3.08;;;2.10;;
7033;SDS011;3558;53.176;10.412;2024-02-26T09:52:01;2.60;;;2.13;;
7033;SDS011;3558;53.176;10.412;2024-02-26T09:54:29;3.03;;;2.00;;
7033;SDS011;3558;53.176;10.412;2024-02-26T09:56:57;3.13;;;1.95;;
7033;SDS011;3558;53.176;10.412;2024-02-26T09:59:25;2.63;;;1.83;;
7033;SDS011;3558;53.176;10.412;2024-02-26T10:01:52;2.67;;;2.00;;
7033;SDS011;3558;53.176;10.412;2024-02-26T10:04:18;2.33;;;1.90;;
7033;SDS011;3558;53.176;10.412;2024-02-26T10:06:45;2.92;;;1.90;;
7033;SDS011;3558;53.176;10.412;2024-02-26T10:09:11;2.53;;;2.00;;
7033;SDS011;3558;53.176;10.412;2024-02-26T10:11:37;2.47;;;1.95;;
7033;SDS011;3558;53.176;10.412;2024-02-26T10:14:05;2.53;;;1.93;;
7033;SDS011;3558;53.176;10.412;2024-02-26T10:16:30;2.30;;;2.00;;
7033;SDS011;3558;53.176;10.412;2024-02-26T10:18:58;2.50;;;1.90;;
7033;SDS011;3558;53.176;10.412;2024-02-26T10:21:23;2.07;;;1.83;;
7033;SDS011;3558;53.176;10.412;2024-02-26T10:23:49;2.97;;;1.77;;
7033;SDS011;3558;53.176;10.412;2024-02-26T10:26:18;2.10;;;1.70;;
7033;SDS011;3558;53.176;10.412;2024-02-26T10:28:44;3.00;;;1.90;;
7033;SDS011;3558;53.176;10.412;2024-02-26T10:31:10;2.20;;;1.60;;
7033;SDS011;3558;53.176;10.412;2024-02-26T10:33:38;1.98;;;1.63;;
7033;SDS011;3558;53.176;10.412;2024-02-26T10:36:04;2.00;;;1.73;;
7033;SDS011;3558;53.176;10.412;2024-02-26T10:38:31;2.05;;;1.67;;
7033;SDS011;3558;53.176;10.412;2024-02-26T10:40:57;2.25;;;1.77;;
7033;SDS011;3558;53.176;10.412;2024-02-26T10:43:24;2.58;;;1.70;;
7033;SDS011;3558;53.176;10.412;2024-02-26T10:45:50;2.22;;;1.80;;
7033;SDS011;3558;53.176;10.412;2024-02-26T10:48:16;2.45;;;1.83;;
7033;SDS011;3558;53.176;10.412;2024-02-26T10:50:42;2.17;;;1.73;;
7033;SDS011;3558;53.176;10.412;2024-02-26T10:53:12;2.15;;;1.80;;
7033;SDS011;3558;53.176;10.412;2024-02-26T10:55:41;2.63;;;1.60;;
7033;SDS011;3558;53.176;10.412;2024-02-26T10:58:10;2.50;;;1.70;;
7033;SDS011;3558;53.176;10.412;2024-02-26T11:00:38;1.90;;;1.50;;
7033;SDS011;3558;53.176;10.412;2024-02-26T11:03:04;2.03;;;1.55;;
7033;SDS011;3558;53.176;10.412;2024-02-26T11:05:32;1.95;;;1.48;;
7033;SDS011;3558;53.176;10.412;2024-02-26T11:07:59;2.13;;;1.58;;
7033;SDS011;3558;53.176;10.412;2024-02-26T11:10:25;1.90;;;1.60;;
7033;SDS011;3558;53.176;10.412;2024-02-26T11:12:54;2.10;;;1.20;;
7033;SDS011;3558;53.176;10.412;2024-02-26T11:15:23;1.65;;;1.38;;
7033;SDS011;3558;53.176;10.412;2024-02-26T11:17:49;1.88;;;1.40;;
7033;SDS011;3558;53.176;10.412;2024-02-26T11:20:17;1.92;;;1.30;;
7033;SDS011;3558;53.176;10.412;2024-02-26T11:22:44;1.93;;;1.50;;
7033;SDS011;3558;53.176;10.412;2024-02-26T11:25:10;1.60;;;1.10;;
7033;SDS011;3558;53.176;10.412;2024-02-26T11:27:48;2.13;;;1.30;;
7033;SDS011;3558;53.176;10.412;2024-02-26T11:30:19;1.85;;;1.30;;
7033;SDS011;3558;53.176;10.412;2024-02-26T11:32:47;1.95;;;1.20;;
7033;SDS011;3558;53.176;10.412;2024-02-26T11:35:13;1.92;;;1.48;;
7033;SDS011;3558;53.176;10.412;2024-02-26T11:37:41;1.73;;;1.10;;
7033;SDS011;3558;53.176;10.412;2024-02-26T11:40:17;1.52;;;1.10;;
7033;SDS011;3558;53.176;10.412;2024-02-26T11:42:43;1.23;;;1.05;;
7033;SDS011;3558;53.176;10.412;2024-02-26T11:48:04;1.30;;;1.20;;
7033;SDS011;3558;53.176;10.412;2024-02-26T11:50:36;1.95;;;1.15;;
7033;SDS011;3558;53.176;10.412;2024-02-26T11:53:19;1.70;;;1.20;;
7033;SDS011;3558;53.176;10.412;2024-02-26T11:55:44;1.58;;;1.20;;
7033;SDS011;3558;53.176;10.412;2024-02-26T11:58:10;1.57;;;1.13;;
7033;SDS011;3558;53.176;10.412;2024-02-26T12:00:35;1.63;;;1.10;;
7033;SDS011;3558;53.176;10.412;2024-02-26T12:03:01;1.40;;;1.00;;
7033;SDS011;3558;53.176;10.412;2024-02-26T12:05:31;1.50;;;1.00;;
7033;SDS011;3558;53.176;10.412;2024-02-26T12:08:02;1.73;;;0.90;;
7033;SDS011;3558;53.176;10.412;2024-02-26T12:10:31;1.45;;;0.90;;
7033;SDS011;3558;53.176;10.412;2024-02-26T12:13:05;1.33;;;1.00;;
7033;SDS011;3558;53.176;10.412;2024-02-26T12:15:45;1.15;;;1.00;;
7033;SDS011;3558;53.176;10.412;2024-02-26T12:18:19;1.50;;;0.90;;
7033;SDS011;3558;53.176;10.412;2024-02-26T12:20:46;1.55;;;1.00;;
7033;SDS011;3558;53.176;10.412;2024-02-26T12:23:15;1.60;;;1.10;;
7033;SDS011;3558;53.176;10.412;2024-02-26T12:25:43;1.50;;;1.00;;
7033;SDS011;3558;53.176;10.412;2024-02-26T12:28:09;1.70;;;1.13;;
7033;SDS011;3558;53.176;10.412;2024-02-26T12:30:34;2.42;;;1.40;;
7033;SDS011;3558;53.176;10.412;2024-02-26T12:33:00;2.30;;;1.50;;
7033;SDS011;3558;53.176;10.412;2024-02-26T12:35:29;2.85;;;1.60;;
7033;SDS011;3558;53.176;10.412;2024-02-26T12:37:56;2.33;;;1.40;;
7033;SDS011;3558;53.176;10.412;2024-02-26T12:40:23;1.65;;;1.20;;
7033;SDS011;3558;53.176;10.412;2024-02-26T12:42:48;1.53;;;1.10;;
7033;SDS011;3558;53.176;10.412;2024-02-26T12:45:14;1.80;;;1.25;;
7033;SDS011;3558;53.176;10.412;2024-02-26T12:47:44;1.35;;;1.02;;
7033;SDS011;3558;53.176;10.412;2024-02-26T12:50:11;2.28;;;1.05;;
7033;SDS011;3558;53.176;10.412;2024-02-26T12:52:38;1.70;;;1.30;;
7033;SDS011;3558;53.176;10.412;2024-02-26T12:55:06;1.55;;;1.17;;
7033;SDS011;3558;53.176;10.412;2024-02-26T12:57:34;1.70;;;1.20;;
7033;SDS011;3558;53.176;10.412;2024-02-26T13:00:02;2.10;;;1.20;;
7033;SDS011;3558;53.176;10.412;2024-02-26T13:02:28;2.13;;;1.40;;
7033;SDS011;3558;53.176;10.412;2024-02-26T13:04:55;2.15;;;1.25;;
7033;SDS011;3558;53.176;10.412;2024-02-26T13:07:22;2.40;;;1.20;;
7033;SDS011;3558;53.176;10.412;2024-02-26T13:09:48;1.65;;;1.20;;
7033;SDS011;3558;53.176;10.412;2024-02-26T13:12:13;1.87;;;1.20;;
7033;SDS011;3558;53.176;10.412;2024-02-26T13:14:39;2.17;;;1.20;;
7033;SDS011;3558;53.176;10.412;2024-02-26T13:17:05;1.87;;;1.17;;
7033;SDS011;3558;53.176;10.412;2024-02-26T13:19:31;2.50;;;1.37;;
7033;SDS011;3558;53.176;10.412;2024-02-26T13:22:03;1.67;;;1.13;;
7033;SDS011;3558;53.176;10.412;2024-02-26T13:24:29;1.88;;;1.05;;
7033;SDS011;3558;53.176;10.412;2024-02-26T13:26:56;2.17;;;1.17;;
7033;SDS011;3558;53.176;10.412;2024-02-26T13:29:21;1.80;;;1.15;;
7033;SDS011;3558;53.176;10.412;2024-02-26T13:31:47;1.70;;;1.20;;
7033;SDS011;3558;53.176;10.412;2024-02-26T13:34:24;1.50;;;1.10;;
7033;SDS011;3558;53.176;10.412;2024-02-26T13:36:51;1.67;;;1.15;;
7033;SDS011;3558;53.176;10.412;2024-02-26T13:39:21;1.27;;;0.98;;
7033;SDS011;3558;53.176;10.412;2024-02-26T13:41:51;1.35;;;1.10;;
7033;SDS011;3558;53.176;10.412;2024-02-26T13:44:17;1.98;;;1.00;;
7033;SDS011;3558;53.176;10.412;2024-02-26T13:46:43;1.85;;;1.10;;
7033;SDS011;3558;53.176;10.412;2024-02-26T13:49:09;1.20;;;1.05;;
7033;SDS011;3558;53.176;10.412;2024-02-26T13:51:35;2.45;;;1.10;;
7033;SDS011;3558;53.176;10.412;2024-02-26T13:54:01;1.65;;;1.23;;
7033;SDS011;3558;53.176;10.412;2024-02-26T13:56:28;1.95;;;1.15;;
7033;SDS011;3558;53.176;10.412;2024-02-26T13:58:54;1.77;;;1.13;;
7033;SDS011;3558;53.176;10.412;2024-02-26T14:01:19;2.00;;;1.10;;
7033;SDS011;3558;53.176;10.412;2024-02-26T14:03:45;1.70;;;1.00;;
7033;SDS011;3558;53.176;10.412;2024-02-26T14:06:10;1.33;;;1.00;;
7033;SDS011;3558;53.176;10.412;2024-02-26T14:08:36;1.42;;;1.00;;
7033;SDS011;3558;53.176;10.412;2024-02-26T14:11:02;1.70;;;1.20;;
7033;SDS011;3558;53.176;10.412;2024-02-26T14:13:27;1.60;;;1.10;;
7033;SDS011;3558;53.176;10.412;2024-02-26T14:15:53;1.80;;;1.10;;
7033;SDS011;3558;53.176;10.412;2024-02-26T14:18:19;2.20;;;1.20;;
7033;SDS011;3558;53.176;10.412;2024-02-26T14:20:44;1.42;;;1.00;;
7033;SDS011;3558;53.176;10.412;2024-02-26T14:23:10;1.40;;;1.00;;
7033;SDS011;3558;53.176;10.412;2024-02-26T14:25:35;1.40;;;0.90;;
7033;SDS011;3558;53.176;10.412;2024-02-26T14:28:01;1.40;;;0.90;;
7033;SDS011;3558;53.176;10.412;2024-02-26T14:30:27;1.10;;;1.00;;
7033;SDS011;3558;53.176;10.412;2024-02-26T14:32:53;1.30;;;1.00;;
7033;SDS011;3558;53.176;10.412;2024-02-26T14:35:18;1.33;;;1.10;;
7033;SDS011;3558;53.176;10.412;2024-02-26T14:37:44;1.80;;;1.00;;
7033;SDS011;3558;53.176;10.412;2024-02-26T14:40:14;1.60;;;0.93;;
7033;SDS011;3558;53.176;10.412;2024-02-26T14:42:40;1.52;;;1.10;;
7033;SDS011;3558;53.176;10.412;2024-02-26T14:45:06;1.30;;;1.00;;
7033;SDS011;3558;53.176;10.412;2024-02-26T14:47:34;1.80;;;1.10;;
7033;SDS011;3558;53.176;10.412;2024-02-26T14:50:00;1.13;;;1.00;;
7033;SDS011;3558;53.176;10.412;2024-02-26T14:52:26;1.48;;;0.90;;
7033;SDS011;3558;53.176;10.412;2024-02-26T14:54:52;1.20;;;1.10;;
7033;SDS011;3558;53.176;10.412;2024-02-26T14:57:18;1.40;;;1.10;;
7033;SDS011;3558;53.176;10.412;2024-02-26T14:59:43;1.33;;;1.00;;
7033;SDS011;3558;53.176;10.412;2024-02-26T15:02:09;1.50;;;1.00;;
7033;SDS011;3558;53.176;10.412;2024-02-26T15:04:35;1.65;;;1.20;;
7033;SDS011;3558;53.176;10.412;2024-02-26T15:07:01;1.95;;;1.20;;
7033;SDS011;3558;53.176;10.412;2024-02-26T15:09:26;1.80;;;1.20;;
7033;SDS011;3558;53.176;10.412;2024-02-26T15:11:52;1.60;;;1.30;;
7033;SDS011;3558;53.176;10.412;2024-02-26T15:14:17;1.30;;;1.10;;
7033;SDS011;3558;53.176;10.412;2024-02-26T15:16:43;1.52;;;1.20;;
7033;SDS011;3558;53.176;10.412;2024-02-26T15:19:08;2.03;;;1.20;;
7033;SDS011;3558;53.176;10.412;2024-02-26T15:21:34;1.52;;;1.23;;
7033;SDS011;3558;53.176;10.412;2024-02-26T15:23:59;2.03;;;1.17;;
7033;SDS011;3558;53.176;10.412;2024-02-26T15:26:25;1.73;;;1.30;;
7033;SDS011;3558;53.176;10.412;2024-02-26T15:28:51;1.90;;;1.42;;
7033;SDS011;3558;53.176;10.412;2024-02-26T15:31:17;3.03;;;1.50;;
7033;SDS011;3558;53.176;10.412;2024-02-26T15:33:44;1.70;;;1.30;;
7033;SDS011;3558;53.176;10.412;2024-02-26T15:36:09;1.97;;;1.70;;
7033;SDS011;3558;53.176;10.412;2024-02-26T15:38:35;2.90;;;1.93;;
7033;SDS011;3558;53.176;10.412;2024-02-26T15:41:01;3.03;;;2.05;;
7033;SDS011;3558;53.176;10.412;2024-02-26T15:43:26;3.00;;;2.10;;
7033;SDS011;3558;53.176;10.412;2024-02-26T15:45:52;3.30;;;2.40;;
7033;SDS011;3558;53.176;10.412;2024-02-26T15:48:17;5.30;;;2.60;;
7033;SDS011;3558;53.176;10.412;2024-02-26T15:50:43;3.42;;;2.70;;
7033;SDS011;3558;53.176;10.412;2024-02-26T15:53:08;3.83;;;2.90;;
7033;SDS011;3558;53.176;10.412;2024-02-26T15:55:34;4.30;;;3.00;;
7033;SDS011;3558;53.176;10.412;2024-02-26T15:58:00;3.80;;;3.23;;
7033;SDS011;3558;53.176;10.412;2024-02-26T16:00:25;3.35;;;2.90;;
7033;SDS011;3558;53.176;10.412;2024-02-26T16:02:51;3.92;;;3.13;;
7033;SDS011;3558;53.176;10.412;2024-02-26T16:05:17;4.07;;;3.50;;
7033;SDS011;3558;53.176;10.412;2024-02-26T16:07:46;4.57;;;3.20;;
7033;SDS011;3558;53.176;10.412;2024-02-26T16:10:20;4.38;;;3.58;;
7033;SDS011;3558;53.176;10.412;2024-02-26T16:12:47;3.90;;;3.47;;
7033;SDS011;3558;53.176;10.412;2024-02-26T16:15:15;4.10;;;3.63;;
7033;SDS011;3558;53.176;10.412;2024-02-26T16:17:42;5.20;;;3.67;;
7033;SDS011;3558;53.176;10.412;2024-02-26T16:20:14;4.07;;;3.67;;
7033;SDS011;3558;53.176;10.412;2024-02-26T16:22:43;4.90;;;3.87;;
7033;SDS011;3558;53.176;10.412;2024-02-26T16:25:09;4.72;;;4.00;;
7033;SDS011;3558;53.176;10.412;2024-02-26T16:27:34;4.50;;;3.80;;
7033;SDS011;3558;53.176;10.412;2024-02-26T16:30:03;4.55;;;3.67;;
7033;SDS011;3558;53.176;10.412;2024-02-26T16:32:32;4.72;;;4.10;;
7033;SDS011;3558;53.176;10.412;2024-02-26T16:34:58;4.70;;;4.00;;
7033;SDS011;3558;53.176;10.412;2024-02-26T16:37:25;4.80;;;4.28;;
7033;SDS011;3558;53.176;10.412;2024-02-26T16:39:52;5.20;;;3.90;;
7033;SDS011;3558;53.176;10.412;2024-02-26T16:42:17;5.10;;;4.60;;
7033;SDS011;3558;53.176;10.412;2024-02-26T16:44:44;5.47;;;4.50;;
7033;SDS011;3558;53.176;10.412;2024-02-26T16:47:09;5.05;;;4.45;;
7033;SDS011;3558;53.176;10.412;2024-02-26T16:49:35;5.10;;;4.40;;
7033;SDS011;3558;53.176;10.412;2024-02-26T16:52:01;5.27;;;4.50;;
7033;SDS011;3558;53.176;10.412;2024-02-26T16:54:27;6.05;;;4.80;;
7033;SDS011;3558;53.176;10.412;2024-02-26T16:56:53;5.60;;;4.95;;
7033;SDS011;3558;53.176;10.412;2024-02-26T16:59:19;6.00;;;4.90;;
7033;SDS011;3558;53.176;10.412;2024-02-26T17:01:45;5.80;;;4.93;;
7033;SDS011;3558;53.176;10.412;2024-02-26T17:04:11;5.95;;;4.85;;
7033;SDS011;3558;53.176;10.412;2024-02-26T17:06:36;5.47;;;4.73;;
7033;SDS011;3558;53.176;10.412;2024-02-26T17:09:02;5.67;;;5.07;;
7033;SDS011;3558;53.176;10.412;2024-02-26T17:11:29;6.97;;;5.53;;
7033;SDS011;3558;53.176;10.412;2024-02-26T17:13:59;6.85;;;5.40;;
7033;SDS011;3558;53.176;10.412;2024-02-26T17:16:24;7.00;;;5.72;;
7033;SDS011;3558;53.176;10.412;2024-02-26T17:18:50;7.80;;;5.82;;
7033;SDS011;3558;53.176;10.412;2024-02-26T17:21:16;7.03;;;5.83;;
7033;SDS011;3558;53.176;10.412;2024-02-26T17:23:42;6.82;;;5.90;;
7033;SDS011;3558;53.176;10.412;2024-02-26T17:26:08;7.97;;;6.28;;
7033;SDS011;3558;53.176;10.412;2024-02-26T17:28:36;7.95;;;6.57;;
7033;SDS011;3558;53.176;10.412;2024-02-26T17:31:05;9.05;;;6.82;;
7033;SDS011;3558;53.176;10.412;2024-02-26T17:33:30;7.80;;;6.10;;
7033;SDS011;3558;53.176;10.412;2024-02-26T17:35:56;8.83;;;7.07;;
7033;SDS011;3558;53.176;10.412;2024-02-26T17:38:21;9.98;;;7.93;;
7033;SDS011;3558;53.176;10.412;2024-02-26T17:40:47;8.67;;;6.80;;
7033;SDS011;3558;53.176;10.412;2024-02-26T17:43:16;9.20;;;7.00;;
7033;SDS011;3558;53.176;10.412;2024-02-26T17:45:45;8.43;;;6.70;;
7033;SDS011;3558;53.176;10.412;2024-02-26T17:48:11;9.02;;;7.00;;
7033;SDS011;3558;53.176;10.412;2024-02-26T17:50:37;9.83;;;7.73;;
7033;SDS011;3558;53.176;10.412;2024-02-26T17:53:03;9.00;;;7.20;;
7033;SDS011;3558;53.176;10.412;2024-02-26T17:55:29;10.00;;;7.33;;
7033;SDS011;3558;53.176;10.412;2024-02-26T17:57:54;9.07;;;6.80;;
7033;SDS011;3558;53.176;10.412;2024-02-26T18:00:20;9.63;;;7.28;;
7033;SDS011;3558;53.176;10.412;2024-02-26T18:02:48;8.50;;;7.15;;
7033;SDS011;3558;53.176;10.412;2024-02-26T18:05:13;9.30;;;7.13;;
7033;SDS011;3558;53.176;10.412;2024-02-26T18:07:39;9.40;;;7.20;;
7033;SDS011;3558;53.176;10.412;2024-02-26T18:10:05;9.52;;;7.50;;
7033;SDS011;3558;53.176;10.412;2024-02-26T18:12:34;9.03;;;6.93;;
7033;SDS011;3558;53.176;10.412;2024-02-26T18:15:01;9.95;;;7.22;;
7033;SDS011;3558;53.176;10.412;2024-02-26T18:17:29;8.33;;;6.80;;
7033;SDS011;3558;53.176;10.412;2024-02-26T18:20:01;9.20;;;6.90;;
7033;SDS011;3558;53.176;10.412;2024-02-26T18:22:32;9.13;;;7.07;;
7033;SDS011;3558;53.176;10.412;2024-02-26T18:24:58;8.23;;;6.88;;
7033;SDS011;3558;53.176;10.412;2024-02-26T18:27:23;8.33;;;6.63;;
7033;SDS011;3558;53.176;10.412;2024-02-26T18:29:49;7.73;;;6.70;;
7033;SDS011;3558;53.176;10.412;2024-02-26T18:32:14;8.65;;;6.82;;
7033;SDS011;3558;53.176;10.412;2024-02-26T18:34:41;8.07;;;6.70;;
7033;SDS011;3558;53.176;10.412;2024-02-26T18:37:07;7.60;;;6.20;;
7033;SDS011;3558;53.176;10.412;2024-02-26T18:39:32;8.83;;;6.70;;
7033;SDS011;3558;53.176;10.412;2024-02-26T18:41:58;8.30;;;6.37;;
7033;SDS011;3558;53.176;10.412;2024-02-26T18:44:23;8.05;;;6.57;;